createdAt,value
2019-05-05T00:05:12.889Z,4.27
2019-05-05T00:10:42.153Z,5.15
2019-05-05T00:16:04.507Z,5.73
2019-05-05T00:21:24.402Z,5.17
2019-05-05T00:26:46.027Z,5.43
2019-05-05T00:32:05.092Z,5.77
2019-05-05T00:37:25.686Z,7.10
2019-05-05T00:42:45.622Z,7.33
2019-05-05T00:48:08.960Z,5.57
2019-05-05T00:53:27.605Z,6.07
2019-05-05T00:58:48.215Z,7.03
2019-05-05T01:04:07.407Z,6.50
2019-05-05T01:09:27.476Z,14.90
2019-05-05T01:14:46.162Z,9.90
2019-05-05T01:20:07.069Z,8.60
2019-05-05T01:25:25.768Z,5.97
2019-05-05T01:30:46.073Z,6.27
2019-05-05T01:36:05.376Z,7.30
2019-05-05T01:41:25.752Z,7.83
2019-05-05T01:46:44.539Z,6.40
2019-05-05T01:52:04.395Z,6.20
2019-05-05T01:57:25.058Z,6.33
2019-05-05T02:02:44.908Z,6.23
2019-05-05T02:08:04.928Z,6.00
2019-05-05T02:13:25.182Z,5.83
2019-05-05T02:18:45.083Z,5.33
2019-05-05T02:24:05.331Z,7.22
2019-05-05T02:29:44.663Z,7.50
2019-05-05T02:35:08.079Z,7.23
2019-05-05T02:40:27.439Z,7.67
2019-05-05T02:46:05.737Z,7.27
2019-05-05T02:51:26.104Z,7.57
2019-05-05T02:56:46.990Z,6.90
2019-05-05T03:02:09.683Z,7.13
2019-05-05T03:07:28.931Z,6.57
2019-05-05T03:12:47.559Z,8.03
2019-05-05T03:18:06.223Z,7.90
2019-05-05T03:23:24.835Z,8.53
2019-05-05T03:28:46.938Z,7.47
2019-05-05T03:34:06.522Z,8.87
2019-05-05T03:39:27.049Z,8.67
2019-05-05T03:44:56.449Z,8.17
2019-05-05T03:50:15.500Z,8.35
2019-05-05T03:55:35.470Z,8.87
2019-05-05T04:01:34.642Z,8.73
2019-05-05T04:06:55.147Z,10.33
2019-05-05T04:12:14.602Z,9.73
2019-05-05T04:17:44.347Z,9.53
2019-05-05T04:23:03.777Z,9.10
2019-05-05T04:28:24.076Z,10.27
2019-05-05T04:33:44.464Z,9.10
2019-05-05T04:39:03.817Z,8.53
2019-05-05T04:44:23.676Z,7.77
2019-05-05T04:49:44.597Z,10.73
2019-05-05T04:55:04.341Z,12.80
2019-05-05T05:00:24.127Z,8.57
2019-05-05T05:05:47.414Z,6.70
2019-05-05T05:11:06.138Z,7.13
2019-05-05T05:16:24.875Z,7.30
2019-05-05T05:21:44.014Z,6.77
2019-05-05T05:27:04.861Z,8.53
2019-05-05T05:32:24.717Z,7.27
2019-05-05T05:37:44.765Z,6.27
2019-05-05T05:43:05.298Z,6.23
2019-05-05T05:48:37.537Z,5.43
2019-05-05T05:53:56.227Z,6.63
2019-05-05T05:59:14.733Z,5.87
2019-05-05T06:04:34.063Z,5.40
2019-05-05T06:09:54.182Z,5.47
2019-05-05T06:15:14.224Z,4.53
2019-05-05T06:20:34.422Z,5.13
2019-05-05T06:25:55.160Z,5.50
2019-05-05T06:31:14.440Z,6.40
2019-05-05T06:36:34.013Z,6.50
2019-05-05T06:47:44.493Z,8.00
2019-05-05T06:53:04.265Z,8.80
2019-05-05T06:58:24.165Z,8.07
2019-05-05T07:03:43.880Z,7.62
2019-05-05T07:09:02.645Z,8.30
2019-05-05T07:14:23.492Z,9.13
2019-05-05T07:19:41.501Z,9.03
2019-05-05T07:25:00.072Z,8.37
2019-05-05T07:30:18.777Z,9.18
2019-05-05T07:35:52.014Z,8.10
2019-05-05T07:40:59.523Z,9.57
2019-05-05T07:46:18.178Z,8.33
2019-05-05T07:51:36.816Z,7.87
2019-05-05T07:56:55.457Z,7.63
2019-05-05T08:02:14.641Z,6.20
2019-05-05T08:07:34.013Z,6.57
2019-05-05T08:12:54.179Z,6.63
2019-05-05T08:18:14.707Z,5.37
2019-05-05T08:23:35.513Z,5.43
2019-05-05T08:28:56.023Z,5.53
2019-05-05T08:34:14.800Z,5.00
2019-05-05T08:39:34.485Z,5.27
2019-05-05T08:44:53.900Z,5.20
2019-05-05T08:50:13.796Z,4.80
2019-05-05T08:55:33.919Z,5.63
2019-05-05T09:00:53.653Z,6.85
2019-05-05T09:06:13.708Z,4.77
2019-05-05T09:11:34.297Z,5.20
2019-05-05T09:16:53.720Z,6.30
2019-05-05T09:22:13.968Z,4.90
2019-05-05T09:27:37.306Z,4.45
2019-05-05T09:32:56.012Z,4.10
2019-05-05T09:38:14.911Z,4.17
2019-05-05T09:43:34.511Z,3.80
2019-05-05T09:48:54.148Z,4.40
2019-05-05T09:54:16.687Z,3.33
2019-05-05T09:59:34.628Z,4.03
2019-05-05T10:04:54.706Z,4.23
2019-05-05T10:10:13.945Z,3.72
2019-05-05T10:15:32.600Z,5.00
2019-05-05T10:20:51.191Z,3.67
2019-05-05T10:26:11.534Z,3.50
2019-05-05T10:31:30.175Z,4.30
2019-05-05T10:36:48.825Z,3.00
2019-05-05T10:42:07.553Z,4.17
2019-05-05T10:47:26.193Z,4.50
2019-05-05T10:52:44.833Z,4.42
2019-05-05T10:58:03.462Z,3.60
2019-05-05T11:03:23.717Z,4.07
2019-05-05T11:08:44.964Z,4.20
2019-05-05T11:14:03.775Z,3.90
2019-05-05T11:19:24.124Z,4.20
2019-05-05T11:24:55.178Z,4.20
2019-05-05T11:30:11.581Z,4.57
2019-05-05T11:35:47.915Z,4.87
2019-05-05T11:41:06.629Z,4.63
2019-05-05T11:46:25.369Z,3.60
2019-05-05T11:51:44.077Z,3.53
2019-05-05T11:57:04.337Z,3.40
2019-05-05T12:02:24.377Z,3.17
2019-05-05T12:07:43.680Z,3.83
2019-05-05T12:13:04.157Z,3.63
2019-05-05T12:18:23.721Z,2.50
2019-05-05T12:23:44.491Z,3.60
2019-05-05T12:29:05.219Z,4.87
2019-05-05T12:34:23.927Z,5.07
2019-05-05T12:39:44.266Z,4.47
2019-05-05T12:45:04.927Z,4.67
2019-05-05T12:50:24.581Z,4.00
2019-05-05T12:55:44.569Z,3.43
2019-05-05T13:01:10.973Z,4.33
2019-05-05T13:06:29.677Z,4.07
2019-05-05T13:11:48.333Z,3.77
2019-05-05T13:17:07.007Z,4.17
2019-05-05T13:22:36.260Z,3.90
2019-05-05T13:27:57.406Z,4.10
2019-05-05T13:33:16.212Z,3.57
2019-05-05T13:38:34.934Z,4.40
2019-05-05T13:43:55.336Z,3.43
2019-05-05T13:49:32.057Z,4.70
2019-05-05T13:54:50.827Z,3.80
2019-05-05T14:00:14.049Z,4.10
2019-05-05T14:05:34.355Z,3.83
2019-05-05T14:10:54.040Z,4.77
2019-05-05T14:16:14.366Z,4.70
2019-05-05T14:21:33.942Z,4.10
2019-05-05T14:26:54.206Z,4.30
2019-05-05T14:32:14.814Z,4.57
2019-05-05T14:37:35.106Z,4.90
2019-05-05T14:42:54.010Z,4.33
2019-05-05T14:48:13.949Z,4.10
2019-05-05T14:53:40.749Z,3.10
2019-05-05T14:58:59.432Z,3.52
2019-05-05T15:04:19.659Z,2.80
2019-05-05T15:09:39.936Z,3.57
2019-05-05T15:14:58.648Z,3.43
2019-05-05T15:20:17.313Z,3.77
2019-05-05T15:25:35.948Z,2.83
2019-05-05T15:30:54.870Z,2.77
2019-05-05T15:36:13.886Z,2.77
2019-05-05T15:41:34.131Z,2.10
2019-05-05T15:46:57.303Z,2.03
2019-05-05T15:52:13.725Z,2.40
2019-05-05T15:57:33.577Z,2.83
2019-05-05T16:02:54.726Z,3.17
2019-05-05T16:08:14.128Z,2.77
2019-05-05T16:13:35.068Z,2.67
2019-05-05T16:19:05.329Z,3.50
2019-05-05T16:24:19.860Z,2.80
2019-05-05T16:29:44.279Z,2.37
2019-05-05T16:35:04.119Z,2.30
2019-05-05T16:40:25.237Z,2.80
2019-05-05T16:45:44.466Z,3.07
2019-05-05T16:51:04.976Z,2.70
2019-05-05T16:56:24.241Z,3.13
2019-05-05T17:01:44.508Z,2.77
2019-05-05T17:07:04.017Z,2.90
2019-05-05T17:12:24.322Z,3.20
2019-05-05T17:17:49.661Z,2.70
2019-05-05T17:23:09.713Z,2.37
2019-05-05T17:28:28.309Z,2.43
2019-05-05T17:33:46.938Z,2.73
2019-05-05T17:39:08.959Z,2.37
2019-05-05T17:44:29.276Z,2.23
2019-05-05T17:50:05.450Z,3.35
2019-05-05T17:55:34.750Z,2.40
2019-05-05T18:00:55.674Z,2.30
2019-05-05T18:06:18.950Z,2.20
2019-05-05T18:11:47.972Z,2.47
2019-05-05T18:17:06.703Z,2.90
2019-05-05T18:22:25.332Z,3.07
2019-05-05T18:27:43.987Z,2.80
2019-05-05T18:33:04.193Z,2.83
2019-05-05T18:38:23.575Z,2.50
2019-05-05T18:43:44.115Z,3.97
2019-05-05T18:49:04.383Z,3.90
2019-05-05T18:54:23.217Z,3.10
2019-05-05T18:59:42.045Z,2.60
2019-05-05T19:05:11.276Z,2.67
2019-05-05T19:10:30.264Z,2.47
2019-05-05T19:15:49.276Z,3.10
2019-05-05T19:21:15.720Z,3.70
2019-05-05T19:26:34.482Z,2.93
2019-05-05T19:31:54.827Z,3.43
2019-05-05T19:37:14.112Z,3.27
2019-05-05T19:42:32.841Z,3.87
2019-05-05T19:47:51.637Z,2.87
2019-05-05T19:53:29.447Z,3.53
2019-05-05T19:58:58.437Z,4.13
2019-05-05T20:04:08.729Z,3.60
2019-05-05T20:09:27.549Z,3.73
2019-05-05T20:14:46.219Z,3.43
2019-05-05T20:20:07.454Z,3.02
2019-05-05T20:25:26.256Z,3.27
2019-05-05T20:30:45.037Z,4.13
2019-05-05T20:36:11.264Z,3.87
2019-05-05T20:41:30.129Z,3.80
2019-05-05T20:46:49.248Z,3.83
2019-05-05T20:52:08.002Z,3.93
2019-05-05T20:57:26.766Z,4.27
2019-05-05T21:02:45.434Z,4.00
2019-05-05T21:08:04.777Z,3.70
2019-05-05T21:13:23.829Z,3.40
2019-05-05T21:18:42.582Z,3.67
2019-05-05T21:24:04.105Z,4.10
2019-05-05T21:29:23.714Z,4.03
2019-05-05T21:34:44.386Z,4.23
2019-05-05T21:40:04.707Z,4.93
2019-05-05T21:45:23.477Z,3.87
2019-05-05T21:50:43.776Z,4.27
2019-05-05T21:56:20.422Z,4.20
2019-05-05T22:01:41.188Z,4.30
2019-05-05T22:07:00.266Z,4.10
2019-05-05T22:12:18.887Z,4.00
2019-05-05T22:17:37.527Z,4.53
2019-05-05T22:22:56.566Z,4.37
2019-05-05T22:28:15.871Z,4.87
2019-05-05T22:33:34.529Z,4.10
2019-05-05T22:38:53.239Z,4.23
2019-05-05T22:44:13.909Z,4.30
2019-05-05T22:49:32.723Z,4.30
2019-05-05T22:54:51.761Z,4.23
2019-05-05T23:00:26.029Z,4.60
2019-05-05T23:05:35.334Z,4.70
2019-05-05T23:10:54.490Z,4.53
2019-05-05T23:16:34.036Z,4.03
2019-05-05T23:21:54.411Z,3.67
2019-05-05T23:27:14.682Z,4.53
2019-05-05T23:32:34.141Z,4.37
2019-05-05T23:37:52.758Z,5.17
2019-05-05T23:43:13.904Z,5.00
2019-05-05T23:48:34.740Z,4.97
2019-05-05T23:53:54.825Z,4.63
2019-05-05T23:59:13.691Z,5.60
